Time;durP1;ratioP1;P1;durP2;ratioP2;P2;SDS_P1;SDS_P2;PMS_P1;PMS_P2;Temp;Humidity;BMP_temperature;BMP_pressure;BME280_temperature;BME280_humidity;BME280_pressure;Samples;Min_cycle;Max_cycle;Signal;HPM_P1;HPM_P2
2024/03/22 00:02:09;;;;;;;74.10;25.80;;;7.20;99.90;;;5.87;100.00;101550.19;6157868;23;20438;-79
2024/03/22 00:04:36;;;;;;;78.53;24.80;;;7.20;99.90;;;5.87;100.00;101553.66;6157213;23;20012;-79
2024/03/22 00:07:03;;;;;;;63.08;24.05;;;7.20;99.90;;;5.87;100.00;101553.66;6157908;23;20009;-80
2024/03/22 00:09:29;;;;;;;71.82;25.63;;;7.20;99.90;;;5.87;100.00;101551.06;6158467;23;20033;-81
2024/03/22 00:11:55;;;;;;;66.80;24.20;;;7.20;99.90;;;5.89;100.00;101548.44;6182701;23;19997;-79
2024/03/22 00:14:24;;;;;;;63.67;23.98;;;7.20;99.90;;;5.89;100.00;101541.44;6159947;23;20084;-81
2024/03/22 00:16:50;;;;;;;72.75;25.67;;;7.20;99.90;;;5.91;100.00;101544.91;6160224;23;20100;-79
2024/03/22 00:19:16;;;;;;;60.50;24.10;;;7.20;99.90;;;5.91;100.00;101534.44;6159222;23;20009;-79
2024/03/22 00:21:42;;;;;;;68.20;25.13;;;7.20;99.90;;;5.92;100.00;101533.56;6158827;23;20013;-81
2024/03/22 00:24:08;;;;;;;64.50;24.38;;;7.20;99.90;;;5.93;100.00;101526.59;6159372;23;20533;-81
2024/03/22 00:26:34;;;;;;;67.22;24.42;;;7.30;99.90;;;5.95;100.00;101522.22;6185591;23;20441;-79
2024/03/22 00:29:07;;;;;;;63.90;23.48;;;7.30;99.90;;;5.98;100.00;101523.94;6159267;23;20498;-81
2024/03/22 00:31:33;;;;;;;65.38;22.95;;;7.30;99.90;;;5.97;100.00;101519.59;6184206;23;20314;-80
2024/03/22 00:33:59;;;;;;;65.65;23.85;;;7.30;99.90;;;6.00;100.00;101516.94;6185613;23;20062;-80
2024/03/22 00:36:24;;;;;;;59.30;22.77;;;7.30;99.90;;;5.95;100.00;101512.63;6159392;23;19997;-81
2024/03/22 00:38:53;;;;;;;58.08;23.92;;;7.30;99.90;;;5.97;100.00;101514.38;6159235;23;20001;-79
2024/03/22 00:41:21;;;;;;;67.70;26.15;;;7.30;99.90;;;5.98;100.00;101509.09;6158732;23;20001;-79
2024/03/22 00:43:47;;;;;;;58.80;22.55;;;7.30;99.90;;;5.99;100.00;101510.00;6158984;23;20512;-80
2024/03/22 00:46:13;;;;;;;56.47;23.20;;;7.30;99.90;;;5.99;100.00;101495.16;6158929;23;20095;-80
2024/03/22 00:48:39;;;;;;;66.50;24.52;;;7.30;99.90;;;5.99;100.00;101495.16;6158560;23;20032;-81
2024/03/22 00:51:05;;;;;;;66.30;24.52;;;7.30;99.90;;;5.97;100.00;101489.09;6185211;23;20031;-79
2024/03/22 00:53:35;;;;;;;65.28;24.52;;;7.30;99.90;;;5.98;100.00;101492.56;6158177;23;20016;-79
2024/03/22 00:56:01;;;;;;;59.45;23.23;;;7.30;99.90;;;5.94;100.00;101482.16;6159396;23;20512;-80
2024/03/22 00:58:28;;;;;;;63.17;23.02;;;7.30;99.90;;;5.95;100.00;101473.41;6158817;23;20008;-79
2024/03/22 01:00:54;;;;;;;63.35;23.52;;;7.30;99.90;;;5.96;100.00;101466.44;6158758;23;20096;-79
2024/03/22 01:03:21;;;;;;;61.38;23.67;;;;;;;5.97;100.00;101462.09;6157791;23;20004;-79
2024/03/22 01:05:57;;;;;;;62.60;23.80;;;7.30;99.90;;;5.97;100.00;101460.34;6159092;23;20564;-79
2024/03/22 01:08:23;;;;;;;63.92;23.88;;;7.20;99.90;;;5.97;100.00;101462.09;6160797;23;20368;-79
2024/03/22 01:10:49;;;;;;;55.70;22.08;;;7.30;99.90;;;5.95;100.00;101447.28;6183543;23;20008;-79
2024/03/22 01:13:17;;;;;;;58.95;24.08;;;7.30;99.90;;;5.94;100.00;101437.72;6133202;23;20005;-79
2024/03/22 01:15:48;;;;;;;56.67;23.05;;;7.30;99.90;;;5.95;100.00;101436.81;6159431;23;20012;-81
2024/03/22 01:18:14;;;;;;;66.68;23.70;;;7.30;99.90;;;5.97;100.00;101436.81;6159965;23;20005;-79
2024/03/22 01:20:40;;;;;;;68.63;23.55;;;7.30;99.90;;;5.98;100.00;101442.88;6158660;23;20009;-81
2024/03/22 01:23:06;;;;;;;64.43;23.85;;;7.30;99.90;;;5.98;100.00;101432.44;6133394;23;20021;-79
2024/03/22 01:25:37;;;;;;;67.50;24.55;;;7.30;99.90;;;6.00;100.00;101433.28;6158793;23;20044;-81
2024/03/22 01:28:04;;;;;;;66.57;23.77;;;7.30;99.90;;;6.00;100.00;101426.28;6159653;23;20506;-80
2024/03/22 01:30:30;;;;;;;61.15;23.55;;;7.30;99.90;;;6.00;100.00;101428.03;6158588;23;20060;-79
2024/03/22 01:32:56;;;;;;;64.40;24.38;;;7.30;99.90;;;5.99;100.00;101428.94;6157834;23;20080;-80
2024/03/22 01:35:22;;;;;;;61.38;23.77;;;7.30;99.90;;;6.00;100.00;101421.06;6159001;23;20012;-81
2024/03/22 01:37:55;;;;;;;61.28;23.33;;;7.30;99.90;;;5.99;100.00;101415.88;6182952;23;20020;-79
2024/03/22 01:40:20;;;;;;;72.30;23.13;;;7.30;99.90;;;5.99;100.00;101400.19;6158949;23;20005;-80
2024/03/22 01:42:47;;;;;;;63.70;24.10;;;7.30;99.90;;;5.99;100.00;101401.06;6157553;23;20452;-79
2024/03/22 01:45:14;;;;;;;60.65;23.38;;;7.30;99.90;;;5.98;100.00;101398.44;6158874;23;20381;-79
2024/03/22 01:47:44;;;;;;;70.40;24.08;;;7.30;99.90;;;5.98;100.00;101396.69;6158309;23;20013;-81
2024/03/22 01:50:11;;;;;;;66.30;25.02;;;7.30;99.90;;;6.02;100.00;101380.06;6159511;23;20590;-81
2024/03/22 01:52:39;;;;;;;73.43;25.58;;;7.30;99.90;;;6.07;100.00;101377.38;6158082;23;19997;-79
2024/03/22 01:55:06;;;;;;;71.35;25.20;;;7.30;99.90;;;6.05;100.00;101376.56;6133943;23;20039;-79
2024/03/22 01:57:40;;;;;;;65.97;23.90;;;7.30;99.90;;;6.04;100.00;101374.81;6133590;23;20016;-80
2024/03/22 02:00:09;;;;;;;64.18;24.90;;;7.30;99.90;;;6.01;100.00;101383.59;6158823;23;20021;-79
2024/03/22 02:02:43;;;;;;;73.95;23.38;;;7.30;99.90;;;5.99;100.00;101379.28;6158082;23;20346;-79
2024/03/22 02:05:15;;;;;;;63.22;23.83;;;7.30;99.90;;;6.00;100.00;101373.16;6159734;23;20004;-80
2024/03/22 02:07:45;;;;;;;57.47;22.35;;;7.30;99.90;;;5.99;100.00;101361.84;6158376;23;20076;-80
2024/03/22 02:10:12;;;;;;;67.13;24.50;;;7.30;99.90;;;6.01;100.00;101367.03;6159164;23;20060;-80
2024/03/22 02:12:39;;;;;;;57.28;23.30;;;7.30;99.90;;;6.01;100.00;101351.38;6157614;23;20450;-80
2024/03/22 02:15:15;;;;;;;64.45;23.92;;;7.30;99.90;;;6.02;100.00;101342.63;6133584;23;20015;-80
2024/03/22 02:17:41;;;;;;;60.83;22.67;;;7.30;99.90;;;6.01;100.00;101346.13;6182953;23;20016;-81
2024/03/22 02:20:07;;;;;;;59.80;24.20;;;7.30;99.90;;;6.01;100.00;101336.53;6158865;23;20356;-80
2024/03/22 02:22:33;;;;;;;63.45;23.65;;;7.30;99.90;;;6.02;100.00;101337.38;6157668;23;20044;-80
2024/03/22 02:25:04;;;;;;;60.45;25.17;;;7.40;99.90;;;6.02;100.00;101330.41;6158598;23;20445;-79
2024/03/22 02:27:30;;;;;;;71.60;25.10;;;;;;;6.05;100.00;101321.66;6158703;23;20009;-81
2024/03/22 02:29:56;;;;;;;59.83;24.38;;;7.40;99.90;;;6.07;100.00;101319.84;6158005;23;20471;-79
2024/03/22 02:32:22;;;;;;;55.08;23.17;;;7.40;99.90;;;6.04;100.00;101318.16;6133625;23;20013;-81
2024/03/22 02:34:48;;;;;;;61.53;24.73;;;7.40;99.90;;;6.11;100.00;101303.22;6158006;23;20009;-79
2024/03/22 02:37:13;;;;;;;64.15;25.30;;;7.40;99.90;;;6.16;100.00;101296.16;6157835;23;20019;-79
2024/03/22 02:39:48;;;;;;;67.82;25.45;;;7.50;99.90;;;6.18;100.00;101276.09;6158939;23;20333;-79
2024/03/22 02:42:14;;;;;;;68.45;24.52;;;7.50;99.90;;;6.20;100.00;101276.91;6159241;23;20005;-79
2024/03/22 02:44:42;;;;;;;69.68;24.10;;;7.50;99.90;;;6.20;100.00;101265.56;6133846;23;20098;-82
2024/03/22 02:47:14;;;;;;;67.63;26.13;;;7.50;99.90;;;6.22;100.00;101266.41;6182621;23;20067;-79
2024/03/22 02:49:40;;;;;;;67.40;24.40;;;7.50;99.90;;;6.25;100.00;101266.38;6159043;23;20020;-80
2024/03/22 02:52:06;;;;;;;69.55;25.45;;;7.50;99.90;;;6.23;100.00;101261.16;6157719;23;20009;-80
2024/03/22 02:54:32;;;;;;;66.35;23.85;;;7.50;99.90;;;6.24;100.00;101268.13;6158213;23;20032;-81
2024/03/22 02:56:57;;;;;;;63.22;24.02;;;7.50;99.90;;;6.18;100.00;101262.13;6157935;23;20015;-80
2024/03/22 02:59:32;;;;;;;54.70;22.02;;;7.50;99.90;;;6.20;100.00;101255.13;6184555;23;20013;-80
2024/03/22 03:01:58;;;;;;;60.60;23.63;;;7.50;99.90;;;6.20;100.00;101258.63;6133932;23;20009;-79
2024/03/22 03:04:23;;;;;;;54.97;22.33;;;7.50;99.90;;;6.19;100.00;101259.50;6157952;23;20509;-80
2024/03/22 03:06:49;;;;;;;55.28;21.75;;;7.50;99.90;;;6.16;100.00;101254.34;6157919;23;20013;-81
2024/03/22 03:09:20;;;;;;;59.33;21.88;;;7.50;99.90;;;6.18;100.00;101249.94;6158292;23;20005;-79
2024/03/22 03:11:46;;;;;;;61.63;23.35;;;7.50;99.90;;;6.17;100.00;101256.03;6132545;23;20525;-79
2024/03/22 03:14:11;;;;;;;66.53;22.35;;;7.50;99.90;;;6.19;100.00;101262.09;6158152;23;20020;-81
2024/03/22 03:16:37;;;;;;;54.53;21.15;;;7.50;99.90;;;6.19;100.00;101266.47;6133444;23;20009;-80
2024/03/22 03:19:03;;;;;;;49.40;19.60;;;7.50;99.90;;;6.18;100.00;101267.34;6158061;23;20521;-82
2024/03/22 03:21:29;;;;;;;52.20;19.52;;;7.50;99.90;;;6.20;100.00;101258.63;6157347;23;20072;-79
2024/03/22 03:24:02;;;;;;;55.28;20.90;;;7.50;99.90;;;6.21;100.00;101252.47;6133865;23;20033;-79
2024/03/22 03:26:28;;;;;;;51.85;19.67;;;7.50;99.90;;;6.23;100.00;101250.69;6157543;23;20063;-80
2024/03/22 03:28:55;;;;;;;49.97;19.35;;;7.50;99.90;;;6.25;100.00;101245.44;6158144;23;20080;-80
2024/03/22 03:31:21;;;;;;;51.92;19.45;;;7.50;99.90;;;6.25;100.00;101243.69;6157461;23;20001;-79
2024/03/22 03:33:54;;;;;;;49.92;19.63;;;7.60;99.90;;;6.26;100.00;101232.31;6157840;23;20077;-80
2024/03/22 03:36:20;;;;;;;40.80;18.08;;;7.60;99.90;;;6.27;100.00;101225.34;6135114;23;20013;-81
2024/03/22 03:38:46;;;;;;;43.65;17.45;;;7.60;99.90;;;6.24;100.00;101215.81;6157833;23;20132;-80
2024/03/22 03:41:12;;;;;;;48.15;19.20;;;7.60;99.90;;;6.25;100.00;101208.84;6157061;23;20036;-80
2024/03/22 03:43:37;;;;;;;41.70;18.98;;;7.60;99.90;;;6.24;100.00;101200.13;6183127;23;20782;-79
2024/03/22 03:46:06;;;;;;;39.85;18.65;;;;;;;6.27;100.00;101196.59;6159467;23;20080;-79
2024/03/22 03:48:34;;;;;;;44.25;17.13;;;7.60;99.90;;;6.29;100.00;101194.78;6185741;23;20015;-80
2024/03/22 03:51:02;;;;;;;42.28;18.40;;;7.60;99.90;;;6.26;100.00;101187.00;6135174;23;20098;-79
2024/03/22 03:53:29;;;;;;;40.20;18.52;;;7.60;99.90;;;6.28;100.00;101199.16;6159439;23;20480;-79
2024/03/22 03:55:59;;;;;;;38.63;17.65;;;7.60;99.90;;;6.30;100.00;101186.91;6159976;23;20076;-79
2024/03/22 03:58:25;;;;;;;43.70;17.83;;;7.60;99.90;;;6.30;100.00;101188.66;6160405;23;20020;-79
2024/03/22 04:00:50;;;;;;;43.90;19.08;;;7.60;99.90;;;6.33;100.00;101186.84;6159177;23;20329;-81
2024/03/22 04:03:16;;;;;;;43.30;17.20;;;7.60;99.90;;;6.33;100.00;101192.06;6159210;23;20004;-81
2024/03/22 04:05:42;;;;;;;38.28;16.33;;;7.60;99.90;;;6.35;100.00;101185.06;6160376;23;20430;-80
2024/03/22 04:08:08;;;;;;;42.70;17.75;;;7.70;99.90;;;6.39;100.00;101188.44;6159311;23;20015;-79
2024/03/22 04:10:34;;;;;;;40.05;17.38;;;7.70;99.90;;;6.40;100.00;101184.09;6160219;23;20005;-80
2024/03/22 04:13:08;;;;;;;34.63;16.20;;;7.70;99.90;;;6.44;100.00;101175.28;6185251;23;20001;-79
2024/03/22 04:15:35;;;;;;;40.45;17.90;;;7.70;99.90;;;6.41;100.00;101170.97;6160361;23;20646;-79
2024/03/22 04:18:00;;;;;;;41.85;17.50;;;7.80;99.90;;;6.45;100.00;101161.31;6159234;23;20013;-83
2024/03/22 04:20:29;;;;;;;37.05;17.15;;;7.80;99.90;;;6.49;100.00;101165.59;6159412;23;20720;-79
2024/03/22 04:22:57;;;;;;;43.08;17.45;;;7.70;99.90;;;6.47;100.00;101167.38;6159090;23;20011;-80
2024/03/22 04:25:23;;;;;;;40.60;17.33;;;7.80;99.90;;;6.49;100.00;101157.72;6159295;23;20016;-80
2024/03/22 04:27:48;;;;;;;38.13;17.40;;;7.80;99.90;;;6.51;100.00;101153.31;6159060;23;20092;-80
2024/03/22 04:30:14;;;;;;;43.28;17.60;;;7.80;99.90;;;6.54;100.00;101154.13;6159169;23;20005;-80
2024/03/22 04:32:40;;;;;;;35.53;16.77;;;7.80;99.90;;;6.54;100.00;101161.09;6158983;23;20026;-81
2024/03/22 04:35:06;;;;;;;39.10;16.88;;;7.80;99.90;;;6.55;100.00;101152.34;6159176;23;20055;-79
2024/03/22 04:37:37;;;;;;;42.15;17.38;;;7.80;99.90;;;6.56;100.00;101143.59;6159735;23;20016;-81
2024/03/22 04:40:04;;;;;;;44.40;18.67;;;7.90;99.90;;;6.57;100.00;101138.34;6135799;23;20012;-81
2024/03/22 04:42:30;;;;;;;47.78;18.00;;;7.90;99.90;;;6.59;100.00;101125.22;6158221;23;20097;-79
2024/03/22 04:44:57;;;;;;;44.13;17.90;;;7.90;99.90;;;6.61;100.00;101127.78;6158440;23;20095;-80
2024/03/22 04:47:30;;;;;;;37.05;16.95;;;7.90;99.90;;;6.61;100.00;101131.28;6158971;23;20073;-79
2024/03/22 04:49:56;;;;;;;42.15;18.88;;;7.90;99.90;;;6.63;100.00;101121.66;6160575;23;20008;-79
2024/03/22 04:52:22;;;;;;;36.28;18.33;;;8.00;99.90;;;6.65;100.00;101109.41;6158438;23;20036;-79
2024/03/22 04:54:49;;;;;;;39.80;18.30;;;;;;;6.67;100.00;101106.72;6159812;23;20032;-79
2024/03/22 04:57:20;;;;;;;42.33;18.30;;;8.00;99.90;;;6.67;100.00;101091.88;6158816;23;20603;-80
2024/03/22 04:59:45;;;;;;;42.00;18.08;;;8.00;99.90;;;6.68;100.00;101083.13;6160165;23;20009;-80
2024/03/22 05:02:11;;;;;;;43.60;19.30;;;8.00;99.90;;;6.70;100.00;101083.97;6184230;23;20059;-81
2024/03/22 05:04:37;;;;;;;39.17;18.27;;;8.00;99.90;;;6.69;100.00;101090.06;6159150;23;20236;-79
2024/03/22 05:07:03;;;;;;;36.90;18.92;;;8.00;99.90;;;6.68;100.00;101083.13;6134161;23;20037;-80
2024/03/22 05:09:30;;;;;;;37.03;18.88;;;8.00;99.90;;;6.68;100.00;101082.28;6159846;23;20009;-81
2024/03/22 05:12:01;;;;;;;43.42;18.90;;;8.00;99.90;;;6.70;100.00;101085.72;6184785;23;20015;-81
2024/03/22 05:14:26;;;;;;;40.60;18.20;;;8.00;99.90;;;6.73;100.00;101089.09;6158916;23;20473;-80
2024/03/22 05:16:52;;;;;;;46.28;19.15;;;8.10;99.90;;;6.75;100.00;101089.06;6159682;23;20009;-81
2024/03/22 05:19:18;;;;;;;38.08;17.60;;;8.10;99.90;;;6.75;100.00;101089.94;6185336;23;20040;-80
2024/03/22 05:21:44;;;;;;;43.83;18.50;;;8.10;99.90;;;6.78;100.00;101083.75;6158291;23;20005;-80
2024/03/22 05:24:10;;;;;;;37.65;18.98;;;8.10;99.90;;;6.80;100.00;101081.94;6159209;23;20029;-83
2024/03/22 05:26:45;;;;;;;40.47;19.60;;;8.10;99.90;;;6.82;100.00;101088.00;6134017;23;20689;-79
2024/03/22 05:29:11;;;;;;;39.17;17.95;;;8.10;99.90;;;6.81;100.00;101075.84;6160965;23;20377;-82
2024/03/22 05:31:48;;;;;;;45.78;19.98;;;8.10;99.90;;;6.85;100.00;101074.88;6157920;23;20132;-79
2024/03/22 05:34:17;;;;;;;33.42;19.05;;;8.10;99.90;;;6.87;100.00;101061.72;6159509;23;20005;-81
2024/03/22 05:36:52;;;;;;;43.92;18.55;;;8.20;99.90;;;6.88;100.00;101063.44;6183777;23;20005;-80
2024/03/22 05:39:18;;;;;;;44.78;19.40;;;8.20;99.90;;;6.89;100.00;101049.44;6160853;23;20005;-80
2024/03/22 05:41:52;;;;;;;34.50;17.45;;;8.20;99.90;;;6.92;100.00;101041.53;6157841;23;20032;-81
2024/03/22 05:44:18;;;;;;;48.63;19.40;;;8.20;99.90;;;6.94;100.00;101055.44;6159872;23;20055;-79
2024/03/22 05:46:44;;;;;;;40.60;19.38;;;8.20;99.90;;;6.95;100.00;101044.06;6158251;23;20005;-80
2024/03/22 05:49:09;;;;;;;41.47;20.10;;;8.30;99.90;;;6.99;100.00;101037.84;6158405;23;20035;-79
2024/03/22 05:51:35;;;;;;;41.45;20.02;;;8.30;99.90;;;7.01;100.00;101043.91;6158258;23;20455;-79
2024/03/22 05:54:08;;;;;;;38.90;20.38;;;8.30;99.90;;;7.05;100.00;101036.81;6184080;23;20005;-79
2024/03/22 05:56:34;;;;;;;42.35;19.95;;;8.30;99.90;;;7.10;100.00;101041.03;6160294;23;20021;-79
2024/03/22 05:59:02;;;;;;;38.97;18.83;;;8.40;99.90;;;7.10;100.00;101035.78;6158240;23;20120;-80
2024/03/22 06:01:28;;;;;;;42.92;20.52;;;8.40;99.90;;;7.12;100.00;101039.22;6158249;23;20041;-80
2024/03/22 06:04:01;;;;;;;37.55;19.85;;;;;;;7.17;100.00;101039.97;6158497;23;20408;-79
2024/03/22 06:06:27;;;;;;;45.38;21.23;;;8.50;99.90;;;7.16;100.00;101033.00;6184724;23;20005;-80
2024/03/22 06:08:54;;;;;;;42.92;21.00;;;8.90;99.90;;;7.21;100.00;101037.25;6184465;23;20019;-81
2024/03/22 06:12:03;;;;;;;36.75;18.52;;;8.50;99.90;;;7.19;100.00;101032.06;6157698;23;20357;-81
2024/03/22 06:14:12;;;;;;;41.88;21.35;;;8.50;99.90;;;7.21;100.00;101026.78;6160666;23;20083;-80
2024/03/22 06:16:38;;;;;;;39.47;20.42;;;8.50;99.90;;;7.23;100.00;101031.06;6158443;23;20012;-80
2024/03/22 06:19:04;;;;;;;40.75;20.77;;;8.50;99.90;;;7.29;100.00;101037.91;6157929;23;20036;-82
2024/03/22 06:21:29;;;;;;;37.85;20.38;;;8.60;99.90;;;7.31;100.00;101043.97;6133044;23;20044;-80
2024/03/22 06:24:03;;;;;;;41.28;20.85;;;8.60;99.90;;;7.32;100.00;101037.81;6157933;23;20108;-80
2024/03/22 06:26:29;;;;;;;47.00;20.65;;;8.60;99.90;;;7.36;100.00;101035.09;6158496;23;20015;-80
2024/03/22 06:28:55;;;;;;;39.63;20.27;;;8.70;99.90;;;7.42;100.00;101036.66;6157851;23;20009;-81
2024/03/22 06:31:21;;;;;;;43.22;20.95;;;8.70;99.90;;;7.44;100.00;101037.47;6157417;23;20805;-81
2024/03/22 06:33:52;;;;;;;36.92;16.45;;;8.70;99.90;;;7.39;100.00;101034.13;6158243;23;20272;-82
2024/03/22 06:36:18;;;;;;;37.75;19.63;;;8.70;99.90;;;7.38;100.00;101027.16;6135329;23;20080;-79
2024/03/22 06:38:44;;;;;;;45.25;21.52;;;8.70;99.90;;;7.44;100.00;101021.75;6158075;23;20048;-79
2024/03/22 06:41:09;;;;;;;37.75;20.00;;;8.70;99.90;;;7.43;100.00;101017.44;6157639;23;20032;-79
2024/03/22 06:46:26;;;;;;;46.33;20.65;;;8.80;99.90;;;7.49;100.00;101011.13;6296418;22;20185;-78
2024/03/22 06:48:53;;;;;;;42.22;19.83;;;8.80;99.90;;;7.45;100.00;100994.66;6253153;22;20015;-79
2024/03/22 06:51:18;;;;;;;39.90;20.05;;;8.80;99.90;;;7.51;100.00;101002.31;6275640;22;20011;-78
2024/03/22 06:53:45;;;;;;;41.17;21.30;;;8.80;99.90;;;7.54;100.00;100993.53;6276203;22;20321;-77
2024/03/22 06:56:17;;;;;;;43.30;21.02;;;8.80;99.90;;;7.55;100.00;100998.72;6276342;22;20004;-77
2024/03/22 06:58:43;;;;;;;42.65;20.05;;;8.80;99.90;;;7.51;100.00;100981.34;6278727;22;20335;-79
2024/03/22 07:01:09;;;;;;;43.65;20.92;;;8.90;99.90;;;7.56;100.00;100976.84;6302436;22;20008;-78
2024/03/22 07:03:35;;;;;;;38.42;18.85;;;8.90;99.90;;;7.55;100.00;100972.50;6275666;22;20432;-78
2024/03/22 07:06:01;;;;;;;42.90;21.33;;;8.80;99.90;;;7.54;100.00;100959.47;6304192;22;20018;-79
2024/03/22 07:08:31;;;;;;;37.55;20.55;;;8.90;99.90;;;7.62;100.00;100956.59;6276292;22;20007;-77
2024/03/22 07:10:57;;;;;;;46.78;21.58;;;8.90;99.90;;;7.63;100.00;100960.94;6277930;22;20003;-78
2024/03/22 07:13:23;;;;;;;45.22;22.35;;;9.00;99.90;;;7.62;100.00;100973.16;6274376;22;20568;-79
2024/03/22 07:15:49;;;;;;;41.80;21.27;;;9.00;99.90;;;7.65;100.00;100975.72;6276001;22;20023;-77
2024/03/22 07:18:15;;;;;;;43.67;22.10;;;9.00;99.90;;;7.65;100.00;100972.25;6276206;22;20014;-79
2024/03/22 07:20:48;;;;;;;40.13;21.90;;;9.00;99.90;;;7.64;100.00;100963.50;6275748;22;20082;-78
2024/03/22 07:23:14;;;;;;;39.78;22.35;;;9.00;99.90;;;7.64;100.00;100968.75;6249862;22;20014;-79
2024/03/22 07:25:42;;;;;;;49.33;23.23;;;9.00;99.90;;;7.67;100.00;100966.03;6276435;22;20090;-78
2024/03/22 07:28:08;;;;;;;44.47;22.75;;;9.00;99.90;;;7.74;100.00;100959.69;6277365;22;20015;-77
2024/03/22 07:30:35;;;;;;;41.33;23.20;;;9.00;99.90;;;7.75;100.00;100955.31;6276074;22;20006;-78
2024/03/22 07:33:04;;;;;;;42.95;23.35;;;9.10;99.90;;;7.74;100.00;100964.09;6300677;22;20090;-78
2024/03/22 07:35:30;;;;;;;47.08;24.20;;;9.10;99.90;;;7.76;100.00;100964.91;6276401;22;20014;-78
2024/03/22 07:37:57;;;;;;;47.95;23.25;;;9.00;99.90;;;7.77;100.00;100966.59;6276073;22;20447;-78
2024/03/22 07:40:22;;;;;;;47.72;25.55;;;9.10;99.90;;;7.82;100.00;100959.47;6250518;22;20690;-79
2024/03/22 07:42:48;;;;;;;46.70;24.58;;;9.10;99.90;;;7.85;100.00;100964.59;6248218;22;20094;-78
2024/03/22 07:45:14;;;;;;;49.65;24.83;;;9.10;99.90;;;7.82;100.00;100956.84;6276108;22;20090;-78
2024/03/22 07:47:45;;;;;;;47.22;24.35;;;9.10;99.90;;;7.86;100.00;100958.47;6275359;22;20094;-79
2024/03/22 07:50:11;;;;;;;49.08;26.35;;;9.20;99.90;;;7.90;100.00;100953.97;6252165;22;20004;-79
2024/03/22 07:52:37;;;;;;;50.72;24.60;;;9.20;99.90;;;7.89;100.00;100947.88;6275442;22;20034;-78
2024/03/22 07:55:03;;;;;;;53.35;26.38;;;9.20;99.90;;;7.91;100.00;100932.09;6275748;22;20033;-79
2024/03/22 07:57:36;;;;;;;49.08;24.70;;;9.20;99.90;;;7.93;100.00;100928.53;6275560;22;20011;-77
2024/03/22 08:00:02;;;;;;;49.17;25.98;;;9.20;99.90;;;7.96;100.00;100924.94;6302610;22;20014;-79
2024/03/22 08:02:28;;;;;;;46.95;24.90;;;9.30;99.90;;;7.93;100.00;100912.78;6274718;22;20007;-79
2024/03/22 08:04:54;;;;;;;55.63;27.88;;;9.20;99.90;;;7.95;100.00;100903.13;6250344;22;20064;-79
2024/03/22 08:07:19;;;;;;;53.50;26.63;;;9.20;99.90;;;7.99;100.00;100904.72;6303617;22;20728;-78
2024/03/22 08:09:45;;;;;;;49.42;24.38;;;9.30;99.90;;;8.06;100.00;100904.53;6303169;22;20088;-77
2024/03/22 08:12:19;;;;;;;47.97;26.50;;;9.30;99.90;;;8.08;100.00;100902.69;6303560;22;19999;-82
2024/03/22 08:14:45;;;;;;;52.00;28.83;;;9.40;99.90;;;8.16;100.00;100892.78;6277223;22;20013;-79
2024/03/22 08:17:11;;;;;;;59.88;29.45;;;9.50;99.90;;;8.25;100.00;100894.25;6276303;22;20030;-81
2024/03/22 08:19:38;;;;;;;48.97;27.90;;;9.60;99.90;;;8.37;100.00;100899.09;6250629;22;20443;-79
2024/03/22 08:22:11;;;;;;;51.70;26.02;;;9.60;99.90;;;8.41;100.00;100898.94;6275721;22;20007;-80
2024/03/22 08:24:37;;;;;;;55.45;30.00;;;9.70;99.90;;;8.52;100.00;100888.06;6275610;22;20011;-78
2024/03/22 08:27:03;;;;;;;54.47;27.80;;;9.80;99.90;;;8.60;100.00;100893.06;6251321;22;20014;-80
2024/03/22 08:29:29;;;;;;;56.83;27.02;;;9.80;99.90;;;8.62;100.00;100889.47;6276295;22;20008;-79
2024/03/22 08:32:02;;;;;;;60.08;29.92;;;9.90;99.90;;;8.71;100.00;100883.03;6303952;22;20120;-78
2024/03/22 08:34:28;;;;;;;56.38;29.17;;;10.00;99.90;;;8.80;100.00;100890.56;6252840;22;20478;-79
2024/03/22 08:36:54;;;;;;;51.03;28.70;;;10.00;99.90;;;8.82;100.00;100880.88;6278568;22;20041;-79
2024/03/22 08:39:20;;;;;;;53.53;29.13;;;10.00;99.90;;;8.85;100.00;100874.63;6252619;22;20063;-80
2024/03/22 08:41:46;;;;;;;49.90;27.52;;;10.10;99.90;;;8.88;100.00;100873.69;6277173;22;20010;-79
2024/03/22 08:44:19;;;;;;;55.58;30.05;;;10.10;99.90;;;8.94;100.00;100874.31;6277852;22;20039;-80
2024/03/22 08:46:45;;;;;;;54.88;30.35;;;10.20;99.90;;;8.98;100.00;100882.91;6277707;22;20093;-80
2024/03/22 08:49:12;;;;;;;51.75;29.15;;;10.20;99.90;;;9.00;100.00;100883.72;6278619;22;20003;-80
2024/03/22 08:51:38;;;;;;;50.85;29.60;;;10.30;99.90;;;9.04;100.00;100875.66;6304060;22;20034;-79
2024/03/22 08:54:08;;;;;;;46.92;27.80;;;10.30;99.90;;;9.09;100.00;100851.84;6277518;22;20006;-80
2024/03/22 08:56:34;;;;;;;51.80;28.30;;;10.30;99.90;;;9.14;100.00;100855.16;6278412;22;20025;-80
2024/03/22 08:59:00;;;;;;;52.80;27.60;;;10.40;99.90;;;9.17;100.00;100867.31;6277286;22;20098;-80
2024/03/22 09:01:26;;;;;;;53.63;29.15;;;10.40;99.90;;;9.21;100.00;100867.13;6276913;22;20715;-79
2024/03/22 09:03:55;;;;;;;57.65;31.10;;;10.50;99.90;;;9.32;100.00;100876.38;6248354;22;20011;-79
2024/03/22 09:06:23;;;;;;;47.95;26.48;;;10.50;99.90;;;9.28;100.00;100870.38;6304302;22;20052;-80
2024/03/22 09:08:49;;;;;;;52.30;30.08;;;10.60;99.90;;;9.37;100.00;100872.69;6278726;22;20011;-79
2024/03/22 09:11:15;;;;;;;52.15;28.38;;;10.60;99.90;;;9.39;100.00;100870.81;6277500;22;20026;-80
2024/03/22 09:13:49;;;;;;;55.45;28.55;;;10.70;99.90;;;9.48;100.00;100863.50;6277531;22;20026;-80
2024/03/22 09:16:17;;;;;;;60.38;30.50;;;10.70;99.90;;;9.54;100.00;100858.84;6254580;22;20014;-80
2024/03/22 09:18:44;;;;;;;56.92;30.38;;;10.80;99.90;;;9.53;100.00;100856.28;6304489;22;20080;-80
2024/03/22 09:21:10;;;;;;;53.63;30.17;;;10.80;99.90;;;9.62;100.00;100856.75;6277028;22;20008;-79
2024/03/22 09:23:36;;;;;;;57.03;29.58;;;10.90;99.90;;;9.70;100.00;100855.59;6278372;22;20011;-79
2024/03/22 09:26:05;;;;;;;56.35;29.77;;;10.90;99.90;;;9.76;100.00;100850.97;6254306;22;20011;-80
2024/03/22 09:28:33;;;;;;;57.40;30.75;;;11.00;99.90;;;9.87;100.00;100845.25;6277799;22;20015;-80
2024/03/22 09:31:05;;;;;;;51.25;29.55;;;11.10;99.90;;;9.94;100.00;100841.44;6278218;22;20010;-79
2024/03/22 09:33:38;;;;;;;52.67;29.65;;;11.20;99.90;;;10.00;100.00;100845.56;6277327;22;20006;-81
2024/03/22 09:36:07;;;;;;;52.03;30.10;;;11.20;99.90;;;9.98;100.00;100837.75;6277516;22;20006;-80
2024/03/22 09:38:33;;;;;;;56.90;31.13;;;11.30;99.90;;;10.06;100.00;100835.66;6277707;22;20100;-80
2024/03/22 09:41:06;;;;;;;56.30;27.83;;;11.30;99.90;;;10.06;100.00;100843.56;6252747;22;20441;-80
2024/03/22 09:43:37;;;;;;;56.25;30.77;;;11.30;99.90;;;10.10;100.00;100852.16;6276827;22;20012;-81
2024/03/22 09:46:15;;;;;;;55.60;31.00;;;11.30;99.90;;;10.13;100.00;100835.38;6251745;22;20015;-80
2024/03/22 09:48:53;;;;;;;52.97;29.30;;;11.40;99.90;;;10.21;99.49;100836.75;6277311;22;20007;-79
2024/03/22 09:51:27;;;;;;;64.85;32.63;;;11.50;99.90;;;10.36;99.96;100844.94;6278615;22;20004;-79
2024/03/22 09:53:57;;;;;;;58.42;33.05;;;11.60;99.90;;;10.44;99.28;100821.78;6253019;22;20007;-80
2024/03/22 09:56:25;;;;;;;57.30;32.78;;;11.60;99.90;;;10.56;99.37;100823.00;6252449;22;20011;-80
2024/03/22 09:58:56;;;;;;;50.92;29.55;;;11.80;99.90;;;10.67;99.33;100811.06;6277524;22;20003;-78
2024/03/22 10:01:24;;;;;;;57.67;29.83;;;11.90;99.90;;;10.78;98.61;100821.13;6277630;22;20007;-80
2024/03/22 10:03:59;;;;;;;61.28;33.75;;;;;;;10.88;97.99;100808.34;6277856;22;20014;-80
2024/03/22 10:06:25;;;;;;;58.33;31.10;;;12.10;99.90;;;10.88;96.28;100800.44;6275601;22;20067;-80
2024/03/22 10:08:54;;;;;;;56.63;30.10;;;12.10;99.90;;;10.88;95.11;100792.56;6278435;22;20479;-80
2024/03/22 10:11:24;;;;;;;58.17;32.22;;;12.00;99.90;;;10.76;95.07;100788.72;6277913;22;20038;-80